Crown Topaz — 3FAS9 — position and weather

sailwx.info

Track history (hours):
 
Tides and Currents Weather Stations Pressure Air Temp Water Temp Dewpoint Dewpoint Depression Visibility Wind Speed Wind Dir Waves Ship Positions

Crown Topaz

Last reported at 2017-Mar-24 10:33 UTC. Time now 2017-Mar-24 19:53 UTC.
Position N 39°02' W 030°25'.

Length 152 m; draft 6.7 m.

Type: Ship. MMSI: 357144000.

Date/timePositionNaut miles runAvg speedWind from/ knotsBaromVisibWave heightAir tempDewpointWater temp
2017-Mar-24 10:33N 39°02' W 030°25'1918.9
2017-Mar-24 09:33N 39°12' W 030°04'1919.1
2017-Mar-24 08:33N 39°21' W 029°42'1919.1
2017-Mar-24 07:33N 39°31' W 029°21'1919.4
2017-Mar-24 06:33N 39°40' W 028°59'1919.3
2017-Mar-24 05:33N 39°50' W 028°37'2119.4
2017-Mar-24 04:29N 40°00' W 028°14'  
2017-Mar-21 05:28N 49°42' W 004°07'1718.9
2017-Mar-21 04:33N 49°48' W 003°42'1918.8
2017-Mar-21 03:34N 49°54' W 003°15'1918.4
2017-Mar-21 02:32N 50°01' W 002°48'3417.2
2017-Mar-21 00:33N 50°10' W 001°57'1716.8
2017-Mar-20 23:33N 50°15' W 001°31'3618.1
2017-Mar-20 21:33N 50°25' W 000°37'1919.1
2017-Mar-20 20:34N 50°30' W 000°08'1919.0
2017-Mar-20 19:34N 50°35' E 000°21'1918.6
2017-Mar-20 18:34N 50°43' E 000°47'1817.6
2017-Mar-20 17:33N 50°54' E 001°10'1616.6
2017-Mar-20 16:34N 51°06' E 001°28'1616.2
2017-Mar-20 15:34N 51°15' E 001°49'1817.7
2017-Mar-20 14:34N 51°31' E 002°03'2018.7
2017-Mar-20 13:29N 51°45' E 002°26'9618.4
2017-Mar-20 08:15N 53°00' E 004°04'1517.5
2017-Mar-20 07:23N 53°10' E 004°24'35317.8
2017-Mar-19 11:32N 57°50' E 010°41'9 9.4
2017-Mar-19 10:34N 57°42' E 010°37'0 0.3
2017-Mar-19 09:30N 57°41' E 010°37'0 0.0
2017-Mar-19 08:33N 57°41' E 010°37'0 0.1
2017-Mar-19 07:33N 57°41' E 010°37'1313.0
2017-Mar-19 06:33N 57°35' E 010°58'1818.0
2017-Mar-19 05:33N 57°26' E 011°27'2018.8
2017-Mar-19 04:29N 57°07' E 011°40'2519.0
2017-Mar-19 03:09N 56°43' E 011°55'2918.1
2017-Mar-19 01:33N 56°16' E 012°11'1212.3
2017-Mar-19 00:33N 56°09' E 012°29'10 9.6
2017-Mar-18 23:33N 56°01' E 012°40'1 0.6
2017-Mar-18 22:31N 56°02' E 012°42'0 0.0
2017-Mar-18 21:31N 56°02' E 012°42'0 0.0
2017-Mar-18 20:31N 56°02' E 012°42'0 0.0
2017-Mar-18 19:31N 56°02' E 012°42'0 0.0
2017-Mar-18 18:31N 56°02' E 012°42'0 0.0
2017-Mar-18 17:31N 56°02' E 012°42'0 0.0
2017-Mar-18 16:31N 56°02' E 012°42'0 0.0
2017-Mar-18 15:31N 56°02' E 012°42'0 0.0
2017-Mar-18 14:31N 56°02' E 012°42'0 0.0
2017-Mar-18 13:31N 56°02' E 012°42'0 0.0
2017-Mar-18 12:31N 56°02' E 012°41'0 0.0
2017-Mar-18 11:31N 56°02' E 012°42'0 0.0
2017-Mar-18 10:31N 56°02' E 012°42'0 0.0
2017-Mar-18 09:31N 56°02' E 012°42'0 0.0
2017-Mar-18 08:31N 56°02' E 012°42'0 0.0
2017-Mar-18 07:31N 56°02' E 012°41'0 0.4
2017-Mar-18 06:34N 56°01' E 012°42'8 7.9
2017-Mar-18 05:33N 55°54' E 012°44'1312.8
2017-Mar-18 04:34N 55°41' E 012°41'10 9.6
2017-Mar-18 03:33N 55°31' E 012°43'2411.7
2017-Mar-18 01:30N 55°15' E 013°14'1818.6
2017-Mar-18 00:32N 55°14' E 013°46'1818.5
2017-Mar-17 23:33N 55°13' E 014°18'1919.2
2017-Mar-17 22:33N 55°29' E 014°37'1818.3
2017-Mar-17 21:34N 55°37' E 015°06'1918.5
2017-Mar-17 20:33N 55°46' E 015°35'1818.5
2017-Mar-17 19:34N 55°55' E 016°04'1818.4
2017-Mar-17 18:34N 56°04' E 016°33'1918.6
2017-Mar-17 17:33N 56°15' E 016°59'28617.7
2017-Mar-17 01:23N 59°38' E 023°19'1518.0
2017-Mar-17 00:33N 59°42' E 023°48'4418.3
2017-Mar-16 22:09N 59°52' E 025°13'1218.5
2017-Mar-16 21:30N 59°54' E 025°37'1818.7
2017-Mar-16 20:34N 59°58' E 026°11'1818.3
2017-Mar-16 19:34N 60°01' E 026°47'1817.7
2017-Mar-16 18:34N 60°06' E 027°21'1514.7
2017-Mar-16 17:33N 60°09' E 027°50'1110.9
2017-Mar-16 16:33N 60°07' E 028°12'1111.1
2017-Mar-16 15:33N 60°02' E 028°32'1111.2
2017-Mar-16 14:33N 60°01' E 028°55'18 5.9
2017-Mar-16 11:31N 60°01' E 029°31'6 6.7
2017-Mar-16 10:33N 59°59' E 029°43'9 8.7
2017-Mar-16 09:33N 59°56' E 029°59'7 7.3
2017-Mar-16 08:33N 59°54' E 030°13'1 1.0
2017-Mar-16 07:32N 59°54' E 030°13'0 0.0
2017-Mar-16 06:32N 59°54' E 030°13'0 0.0
2017-Mar-16 05:32N 59°54' E 030°13'0 0.0
2017-Mar-16 04:32N 59°54' E 030°13'0 0.0
2017-Mar-16 03:29N 59°54' E 030°13'0 0.0
2017-Mar-16 02:32N 59°54' E 030°13'0 0.0
2017-Mar-16 01:32N 59°54' E 030°13'0 0.0
2017-Mar-16 00:32N 59°54' E 030°13'0 0.0
2017-Mar-15 23:32N 59°54' E 030°13'0 0.0
2017-Mar-15 22:32N 59°54' E 030°13'0 0.0
2017-Mar-15 21:32N 59°54' E 030°13'0 0.0
2017-Mar-15 20:32N 59°54' E 030°13'0 0.0
2017-Mar-15 19:32N 59°54' E 030°13'0 0.0
2017-Mar-15 18:32N 59°54' E 030°13'0 0.0
2017-Mar-15 17:32N 59°54' E 030°13'0 0.0
2017-Mar-15 16:32N 59°54' E 030°13'0 0.0
2017-Mar-15 15:32N 59°54' E 030°13'0 0.0
2017-Mar-15 14:32N 59°54' E 030°13'0 0.0
2017-Mar-15 13:32N 59°54' E 030°13'0 0.0
2017-Mar-15 12:32N 59°54' E 030°13'0 0.0
2017-Mar-15 11:32N 59°54' E 030°13'0 0.0
2017-Mar-15 10:32N 59°54' E 030°13'0 0.0
2017-Mar-15 09:32N 59°54' E 030°13'0 0.0
2017-Mar-15 08:32N 59°54' E 030°13'0 0.0
2017-Mar-15 07:32N 59°54' E 030°13'0 0.0
2017-Mar-15 06:32N 59°54' E 030°13'0 0.0
2017-Mar-15 05:32N 59°54' E 030°13'0 0.0
2017-Mar-15 04:32N 59°54' E 030°13'0 0.0
2017-Mar-15 03:32N 59°54' E 030°13'0 0.0
2017-Mar-15 02:32N 59°54' E 030°13'0 0.0
2017-Mar-15 01:32N 59°54' E 030°13'0 0.0
2017-Mar-15 00:32N 59°54' E 030°13'0 0.0
2017-Mar-14 23:32N 59°54' E 030°13'0 0.0
2017-Mar-14 22:32N 59°54' E 030°13'0 0.0
2017-Mar-14 21:32N 59°54' E 030°13'0 0.0
2017-Mar-14 20:32N 59°54' E 030°13'0 0.0
2017-Mar-14 19:32N 59°54' E 030°13'0 0.0
2017-Mar-14 18:32N 59°54' E 030°13'0 0.0
2017-Mar-14 17:32N 59°54' E 030°13'0 0.0
2017-Mar-14 16:32N 59°54' E 030°13'0 0.0
2017-Mar-14 15:32N 59°54' E 030°13'0 0.0
2017-Mar-14 14:32N 59°54' E 030°13'0 0.0
2017-Mar-14 13:32N 59°54' E 030°13'0 0.0
2017-Mar-14 12:32N 59°54' E 030°13'0 0.0
2017-Mar-14 11:32N 59°54' E 030°13'  
Track history (hours):
 
Tides and Currents Weather Stations Pressure Air Temp Water Temp Dewpoint Dewpoint Depression Visibility Wind Speed Wind Dir Waves Ship Positions

Crown Topaz

Last reported at 2017-Mar-24 10:33 UTC. Time now 2017-Mar-24 19:53 UTC.
Position N 39°02' W 030°25'.

Length 152 m; draft 6.7 m.

Type: Ship. MMSI: 357144000.

Date/timePositionNaut miles runAvg speedWind from/ knotsBaromVisibWave heightAir tempDewpointWater temp
2017-Mar-24 10:33N 39°02' W 030°25'1918.9
2017-Mar-24 09:33N 39°12' W 030°04'1919.1
2017-Mar-24 08:33N 39°21' W 029°42'1919.1
2017-Mar-24 07:33N 39°31' W 029°21'1919.4
2017-Mar-24 06:33N 39°40' W 028°59'1919.3
2017-Mar-24 05:33N 39°50' W 028°37'2119.4
2017-Mar-24 04:29N 40°00' W 028°14'  
2017-Mar-21 05:28N 49°42' W 004°07'1718.9
2017-Mar-21 04:33N 49°48' W 003°42'1918.8
2017-Mar-21 03:34N 49°54' W 003°15'1918.4
2017-Mar-21 02:32N 50°01' W 002°48'3417.2
2017-Mar-21 00:33N 50°10' W 001°57'1716.8
2017-Mar-20 23:33N 50°15' W 001°31'3618.1
2017-Mar-20 21:33N 50°25' W 000°37'1919.1
2017-Mar-20 20:34N 50°30' W 000°08'1919.0
2017-Mar-20 19:34N 50°35' E 000°21'1918.6
2017-Mar-20 18:34N 50°43' E 000°47'1817.6
2017-Mar-20 17:33N 50°54' E 001°10'1616.6
2017-Mar-20 16:34N 51°06' E 001°28'1616.2
2017-Mar-20 15:34N 51°15' E 001°49'1817.7
2017-Mar-20 14:34N 51°31' E 002°03'2018.7
2017-Mar-20 13:29N 51°45' E 002°26'9618.4
2017-Mar-20 08:15N 53°00' E 004°04'1517.5
2017-Mar-20 07:23N 53°10' E 004°24'35317.8
2017-Mar-19 11:32N 57°50' E 010°41'9 9.4
2017-Mar-19 10:34N 57°42' E 010°37'0 0.3
2017-Mar-19 09:30N 57°41' E 010°37'0 0.0
2017-Mar-19 08:33N 57°41' E 010°37'0 0.1
2017-Mar-19 07:33N 57°41' E 010°37'1313.0
2017-Mar-19 06:33N 57°35' E 010°58'1818.0
2017-Mar-19 05:33N 57°26' E 011°27'2018.8
2017-Mar-19 04:29N 57°07' E 011°40'2519.0
2017-Mar-19 03:09N 56°43' E 011°55'2918.1
2017-Mar-19 01:33N 56°16' E 012°11'1212.3
2017-Mar-19 00:33N 56°09' E 012°29'10 9.6
2017-Mar-18 23:33N 56°01' E 012°40'1 0.6
2017-Mar-18 22:31N 56°02' E 012°42'0 0.0
2017-Mar-18 21:31N 56°02' E 012°42'0 0.0
2017-Mar-18 20:31N 56°02' E 012°42'0 0.0
2017-Mar-18 19:31N 56°02' E 012°42'0 0.0
2017-Mar-18 18:31N 56°02' E 012°42'0 0.0
2017-Mar-18 17:31N 56°02' E 012°42'0 0.0
2017-Mar-18 16:31N 56°02' E 012°42'0 0.0
2017-Mar-18 15:31N 56°02' E 012°42'0 0.0
2017-Mar-18 14:31N 56°02' E 012°42'0 0.0
2017-Mar-18 13:31N 56°02' E 012°42'0 0.0
2017-Mar-18 12:31N 56°02' E 012°41'0 0.0
2017-Mar-18 11:31N 56°02' E 012°42'0 0.0
2017-Mar-18 10:31N 56°02' E 012°42'0 0.0
2017-Mar-18 09:31N 56°02' E 012°42'0 0.0
2017-Mar-18 08:31N 56°02' E 012°42'0 0.0
2017-Mar-18 07:31N 56°02' E 012°41'0 0.4
2017-Mar-18 06:34N 56°01' E 012°42'8 7.9
2017-Mar-18 05:33N 55°54' E 012°44'1312.8
2017-Mar-18 04:34N 55°41' E 012°41'10 9.6
2017-Mar-18 03:33N 55°31' E 012°43'2411.7
2017-Mar-18 01:30N 55°15' E 013°14'1818.6
2017-Mar-18 00:32N 55°14' E 013°46'1818.5
2017-Mar-17 23:33N 55°13' E 014°18'1919.2
2017-Mar-17 22:33N 55°29' E 014°37'1818.3
2017-Mar-17 21:34N 55°37' E 015°06'1918.5
2017-Mar-17 20:33N 55°46' E 015°35'1818.5
2017-Mar-17 19:34N 55°55' E 016°04'1818.4
2017-Mar-17 18:34N 56°04' E 016°33'1918.6
2017-Mar-17 17:33N 56°15' E 016°59'28617.7
2017-Mar-17 01:23N 59°38' E 023°19'1518.0
2017-Mar-17 00:33N 59°42' E 023°48'4418.3
2017-Mar-16 22:09N 59°52' E 025°13'1218.5
2017-Mar-16 21:30N 59°54' E 025°37'1818.7
2017-Mar-16 20:34N 59°58' E 026°11'1818.3
2017-Mar-16 19:34N 60°01' E 026°47'1817.7
2017-Mar-16 18:34N 60°06' E 027°21'1514.7
2017-Mar-16 17:33N 60°09' E 027°50'1110.9
2017-Mar-16 16:33N 60°07' E 028°12'1111.1
2017-Mar-16 15:33N 60°02' E 028°32'1111.2
2017-Mar-16 14:33N 60°01' E 028°55'18 5.9
2017-Mar-16 11:31N 60°01' E 029°31'6 6.7
2017-Mar-16 10:33N 59°59' E 029°43'9 8.7
2017-Mar-16 09:33N 59°56' E 029°59'7 7.3
2017-Mar-16 08:33N 59°54' E 030°13'1 1.0
2017-Mar-16 07:32N 59°54' E 030°13'0 0.0
2017-Mar-16 06:32N 59°54' E 030°13'0 0.0
2017-Mar-16 05:32N 59°54' E 030°13'0 0.0
2017-Mar-16 04:32N 59°54' E 030°13'0 0.0
2017-Mar-16 03:29N 59°54' E 030°13'0 0.0
2017-Mar-16 02:32N 59°54' E 030°13'0 0.0
2017-Mar-16 01:32N 59°54' E 030°13'0 0.0
2017-Mar-16 00:32N 59°54' E 030°13'0 0.0
2017-Mar-15 23:32N 59°54' E 030°13'0 0.0
2017-Mar-15 22:32N 59°54' E 030°13'0 0.0
2017-Mar-15 21:32N 59°54' E 030°13'0 0.0
2017-Mar-15 20:32N 59°54' E 030°13'0 0.0
2017-Mar-15 19:32N 59°54' E 030°13'0 0.0
2017-Mar-15 18:32N 59°54' E 030°13'0 0.0
2017-Mar-15 17:32N 59°54' E 030°13'0 0.0
2017-Mar-15 16:32N 59°54' E 030°13'0 0.0
2017-Mar-15 15:32N 59°54' E 030°13'0 0.0
2017-Mar-15 14:32N 59°54' E 030°13'0 0.0
2017-Mar-15 13:32N 59°54' E 030°13'0 0.0
2017-Mar-15 12:32N 59°54' E 030°13'0 0.0
2017-Mar-15 11:32N 59°54' E 030°13'0 0.0
2017-Mar-15 10:32N 59°54' E 030°13'0 0.0
2017-Mar-15 09:32N 59°54' E 030°13'0 0.0
2017-Mar-15 08:32N 59°54' E 030°13'0 0.0
2017-Mar-15 07:32N 59°54' E 030°13'0 0.0
2017-Mar-15 06:32N 59°54' E 030°13'0 0.0
2017-Mar-15 05:32N 59°54' E 030°13'0 0.0
2017-Mar-15 04:32N 59°54' E 030°13'0 0.0
2017-Mar-15 03:32N 59°54' E 030°13'0 0.0
2017-Mar-15 02:32N 59°54' E 030°13'0 0.0
2017-Mar-15 01:32N 59°54' E 030°13'0 0.0
2017-Mar-15 00:32N 59°54' E 030°13'0 0.0
2017-Mar-14 23:32N 59°54' E 030°13'0 0.0
2017-Mar-14 22:32N 59°54' E 030°13'0 0.0
2017-Mar-14 21:32N 59°54' E 030°13'0 0.0
2017-Mar-14 20:32N 59°54' E 030°13'0 0.0
2017-Mar-14 19:32N 59°54' E 030°13'0 0.0
2017-Mar-14 18:32N 59°54' E 030°13'0 0.0
2017-Mar-14 17:32N 59°54' E 030°13'0 0.0
2017-Mar-14 16:32N 59°54' E 030°13'0 0.0
2017-Mar-14 15:32N 59°54' E 030°13'0 0.0
2017-Mar-14 14:32N 59°54' E 030°13'0 0.0
2017-Mar-14 13:32N 59°54' E 030°13'0 0.0
2017-Mar-14 12:32N 59°54' E 030°13'0 0.0
2017-Mar-14 11:32N 59°54' E 030°13'  

Dump ship's entire track history